sensor_id;sensor_type;location;lat;lon;timestamp;pressure;altitude;pressure_sealevel;temperature;humidity
26043;BME280;13818;52.156;5.382;2022-11-02T00:02:16;101054.19;;;12.59;100.00
26043;BME280;13818;52.156;5.382;2022-11-02T00:04:42;101049.31;;;12.67;100.00
26043;BME280;13818;52.156;5.382;2022-11-02T00:07:09;101060.88;;;12.68;100.00
26043;BME280;13818;52.156;5.382;2022-11-02T00:09:37;101055.22;;;12.74;100.00
26043;BME280;13818;52.156;5.382;2022-11-02T00:12:04;101050.75;;;12.75;100.00
26043;BME280;13818;52.156;5.382;2022-11-02T00:14:30;101044.44;;;12.76;100.00
26043;BME280;13818;52.156;5.382;2022-11-02T00:16:57;101050.50;;;12.62;100.00
26043;BME280;13818;52.156;5.382;2022-11-02T00:19:24;101059.09;;;12.68;100.00
26043;BME280;13818;52.156;5.382;2022-11-02T00:21:50;101040.41;;;12.67;100.00
26043;BME280;13818;52.156;5.382;2022-11-02T00:24:17;101037.44;;;12.56;100.00
26043;BME280;13818;52.156;5.382;2022-11-02T00:26:44;101039.09;;;12.58;100.00
26043;BME280;13818;52.156;5.382;2022-11-02T00:29:11;101040.59;;;12.64;100.00
26043;BME280;13818;52.156;5.382;2022-11-02T00:31:37;101029.72;;;12.67;100.00
26043;BME280;13818;52.156;5.382;2022-11-02T00:34:04;101036.97;;;12.65;100.00
26043;BME280;13818;52.156;5.382;2022-11-02T00:36:30;101045.94;;;12.64;100.00
26043;BME280;13818;52.156;5.382;2022-11-02T00:38:57;101040.41;;;12.67;100.00
26043;BME280;13818;52.156;5.382;2022-11-02T00:41:23;101044.81;;;12.68;100.00
26043;BME280;13818;52.156;5.382;2022-11-02T00:43:51;101037.69;;;12.68;100.00
26043;BME280;13818;52.156;5.382;2022-11-02T00:46:17;101039.41;;;12.69;100.00
26043;BME280;13818;52.156;5.382;2022-11-02T00:48:44;101034.00;;;12.71;100.00
26043;BME280;13818;52.156;5.382;2022-11-02T00:51:10;101033.06;;;12.72;100.00
26043;BME280;13818;52.156;5.382;2022-11-02T00:53:37;101033.09;;;12.70;100.00
26043;BME280;13818;52.156;5.382;2022-11-02T00:56:04;101031.13;;;12.74;100.00
26043;BME280;13818;52.156;5.382;2022-11-02T00:58:31;101035.72;;;12.72;100.00
26043;BME280;13818;52.156;5.382;2022-11-02T01:01:03;101036.03;;;12.66;100.00
26043;BME280;13818;52.156;5.382;2022-11-02T01:03:30;101032.16;;;12.72;100.00
26043;BME280;13818;52.156;5.382;2022-11-02T01:05:56;101042.06;;;12.69;100.00
26043;BME280;13818;52.156;5.382;2022-11-02T01:08:22;101064.34;;;12.70;100.00
26043;BME280;13818;52.156;5.382;2022-11-02T01:10:49;101080.41;;;12.70;100.00
26043;BME280;13818;52.156;5.382;2022-11-02T01:13:16;101086.59;;;12.70;100.00
26043;BME280;13818;52.156;5.382;2022-11-02T01:15:42;101064.75;;;12.62;100.00
26043;BME280;13818;52.156;5.382;2022-11-02T01:18:12;101064.16;;;12.56;100.00
26043;BME280;13818;52.156;5.382;2022-11-02T01:20:39;101058.16;;;12.52;100.00
26043;BME280;13818;52.156;5.382;2022-11-02T01:23:05;101053.72;;;12.51;100.00
26043;BME280;13818;52.156;5.382;2022-11-02T01:25:31;101069.91;;;12.48;100.00
26043;BME280;13818;52.156;5.382;2022-11-02T01:27:58;101067.09;;;12.33;100.00
26043;BME280;13818;52.156;5.382;2022-11-02T01:30:24;101064.06;;;12.22;100.00
26043;BME280;13818;52.156;5.382;2022-11-02T01:32:51;101059.13;;;12.14;100.00
26043;BME280;13818;52.156;5.382;2022-11-02T01:35:19;101061.28;;;12.06;100.00
26043;BME280;13818;52.156;5.382;2022-11-02T01:37:45;101067.34;;;11.91;100.00
26043;BME280;13818;52.156;5.382;2022-11-02T01:40:12;101058.09;;;11.79;100.00
26043;BME280;13818;52.156;5.382;2022-11-02T01:42:39;101077.97;;;11.73;100.00
26043;BME280;13818;52.156;5.382;2022-11-02T01:45:06;101055.59;;;11.56;100.00
26043;BME280;13818;52.156;5.382;2022-11-02T01:47:36;101029.75;;;11.57;100.00
26043;BME280;13818;52.156;5.382;2022-11-02T01:50:07;101051.72;;;11.64;100.00
26043;BME280;13818;52.156;5.382;2022-11-02T01:52:38;101052.66;;;11.63;100.00
26043;BME280;13818;52.156;5.382;2022-11-02T01:55:09;101053.13;;;11.52;100.00
26043;BME280;13818;52.156;5.382;2022-11-02T01:57:46;101042.91;;;11.43;100.00
26043;BME280;13818;52.156;5.382;2022-11-02T02:00:17;101044.69;;;11.42;100.00
26043;BME280;13818;52.156;5.382;2022-11-02T02:03:00;101044.84;;;11.39;100.00
26043;BME280;13818;52.156;5.382;2022-11-02T02:05:49;101045.19;;;11.31;100.00
26043;BME280;13818;52.156;5.382;2022-11-02T02:08:24;101040.94;;;11.27;100.00
26043;BME280;13818;52.156;5.382;2022-11-02T02:10:58;101035.94;;;11.19;100.00
26043;BME280;13818;52.156;5.382;2022-11-02T02:13:31;101049.34;;;11.18;100.00
26043;BME280;13818;52.156;5.382;2022-11-02T02:16:14;101035.00;;;11.20;100.00
26043;BME280;13818;52.156;5.382;2022-11-02T02:19:04;101038.03;;;11.13;100.00
26043;BME280;13818;52.156;5.382;2022-11-02T02:21:44;101040.50;;;11.17;100.00
26043;BME280;13818;52.156;5.382;2022-11-02T02:24:35;101037.91;;;11.16;100.00
26043;BME280;13818;52.156;5.382;2022-11-02T02:27:17;101038.69;;;11.18;100.00
26043;BME280;13818;52.156;5.382;2022-11-02T02:30:04;101034.72;;;11.07;100.00
26043;BME280;13818;52.156;5.382;2022-11-02T02:32:44;101046.91;;;11.13;100.00
26043;BME280;13818;52.156;5.382;2022-11-02T02:35:25;101044.38;;;11.10;100.00
26043;BME280;13818;52.156;5.382;2022-11-02T02:37:59;101060.81;;;11.01;100.00
26043;BME280;13818;52.156;5.382;2022-11-02T02:40:41;101047.13;;;11.09;100.00
26043;BME280;13818;52.156;5.382;2022-11-02T02:43:30;101062.19;;;11.10;100.00
26043;BME280;13818;52.156;5.382;2022-11-02T02:46:11;101060.66;;;11.04;100.00
26043;BME280;13818;52.156;5.382;2022-11-02T02:48:47;101054.38;;;11.05;100.00
26043;BME280;13818;52.156;5.382;2022-11-02T02:51:28;101048.19;;;11.04;100.00
26043;BME280;13818;52.156;5.382;2022-11-02T02:54:01;101039.03;;;11.10;100.00
26043;BME280;13818;52.156;5.382;2022-11-02T02:56:35;101045.31;;;11.09;100.00
26043;BME280;13818;52.156;5.382;2022-11-02T02:59:14;101043.28;;;11.14;100.00
26043;BME280;13818;52.156;5.382;2022-11-02T03:01:50;101043.38;;;11.13;100.00
26043;BME280;13818;52.156;5.382;2022-11-02T03:04:25;101038.09;;;11.11;100.00
26043;BME280;13818;52.156;5.382;2022-11-02T03:06:59;101050.56;;;11.11;100.00
26043;BME280;13818;52.156;5.382;2022-11-02T03:09:33;101043.53;;;11.10;100.00
26043;BME280;13818;52.156;5.382;2022-11-02T03:12:21;101044.44;;;11.09;100.00
26043;BME280;13818;52.156;5.382;2022-11-02T03:15:04;101045.97;;;11.14;100.00
26043;BME280;13818;52.156;5.382;2022-11-02T03:17:46;101037.03;;;11.15;100.00
26043;BME280;13818;52.156;5.382;2022-11-02T03:20:25;101042.16;;;11.20;100.00
26043;BME280;13818;52.156;5.382;2022-11-02T03:23:09;101035.75;;;11.24;100.00
26043;BME280;13818;52.156;5.382;2022-11-02T03:25:49;101039.06;;;11.29;100.00
26043;BME280;13818;52.156;5.382;2022-11-02T03:28:27;101044.47;;;11.28;100.00
26043;BME280;13818;52.156;5.382;2022-11-02T03:31:06;101032.72;;;11.32;100.00
26043;BME280;13818;52.156;5.382;2022-11-02T03:33:41;101043.75;;;11.43;100.00
26043;BME280;13818;52.156;5.382;2022-11-02T03:36:34;101043.84;;;11.42;100.00
26043;BME280;13818;52.156;5.382;2022-11-02T03:39:09;101051.91;;;11.40;100.00
26043;BME280;13818;52.156;5.382;2022-11-02T03:41:43;101059.69;;;11.45;100.00
26043;BME280;13818;52.156;5.382;2022-11-02T03:44:14;101064.34;;;11.41;100.00
26043;BME280;13818;52.156;5.382;2022-11-02T03:46:50;101058.19;;;11.39;100.00
26043;BME280;13818;52.156;5.382;2022-11-02T03:49:32;101052.84;;;11.39;100.00
26043;BME280;13818;52.156;5.382;2022-11-02T03:52:11;101056.31;;;11.41;100.00
26043;BME280;13818;52.156;5.382;2022-11-02T03:54:52;101055.59;;;11.37;100.00
26043;BME280;13818;52.156;5.382;2022-11-02T03:57:27;101045.78;;;11.38;100.00
26043;BME280;13818;52.156;5.382;2022-11-02T04:00:17;101054.72;;;11.37;100.00
26043;BME280;13818;52.156;5.382;2022-11-02T04:02:46;101073.13;;;11.43;100.00
26043;BME280;13818;52.156;5.382;2022-11-02T04:05:28;101065.84;;;11.47;100.00
26043;BME280;13818;52.156;5.382;2022-11-02T04:07:59;101077.25;;;11.50;100.00
26043;BME280;13818;52.156;5.382;2022-11-02T04:10:46;101078.75;;;11.56;100.00
26043;BME280;13818;52.156;5.382;2022-11-02T04:13:31;101083.09;;;11.59;100.00
26043;BME280;13818;52.156;5.382;2022-11-02T04:16:15;101092.63;;;11.64;100.00
26043;BME280;13818;52.156;5.382;2022-11-02T04:18:42;101085.19;;;11.71;100.00
26043;BME280;13818;52.156;5.382;2022-11-02T04:21:30;101088.72;;;11.71;100.00
26043;BME280;13818;52.156;5.382;2022-11-02T04:23:56;101091.31;;;11.73;100.00
26043;BME280;13818;52.156;5.382;2022-11-02T04:26:41;101108.28;;;11.72;100.00
26043;BME280;13818;52.156;5.382;2022-11-02T04:29:07;101116.00;;;11.78;100.00
26043;BME280;13818;52.156;5.382;2022-11-02T04:31:34;101117.88;;;11.76;100.00
26043;BME280;13818;52.156;5.382;2022-11-02T04:34:00;101140.84;;;11.80;100.00
26043;BME280;13818;52.156;5.382;2022-11-02T04:36:29;101132.81;;;11.80;100.00
26043;BME280;13818;52.156;5.382;2022-11-02T04:38:56;101145.09;;;11.84;100.00
26043;BME280;13818;52.156;5.382;2022-11-02T04:41:23;101149.63;;;11.82;100.00
26043;BME280;13818;52.156;5.382;2022-11-02T04:44:08;101159.91;;;11.92;100.00
26043;BME280;13818;52.156;5.382;2022-11-02T04:46:36;101155.56;;;11.89;100.00
26043;BME280;13818;52.156;5.382;2022-11-02T04:49:03;101151.09;;;11.89;100.00
26043;BME280;13818;52.156;5.382;2022-11-02T04:51:32;101135.69;;;11.95;100.00
26043;BME280;13818;52.156;5.382;2022-11-02T04:53:59;101147.31;;;11.94;100.00
26043;BME280;13818;52.156;5.382;2022-11-02T04:56:26;101164.91;;;11.99;100.00
26043;BME280;13818;52.156;5.382;2022-11-02T04:58:54;101171.53;;;11.91;100.00
26043;BME280;13818;52.156;5.382;2022-11-02T05:01:21;101183.94;;;11.92;100.00
26043;BME280;13818;52.156;5.382;2022-11-02T05:03:51;101202.75;;;11.88;100.00
26043;BME280;13818;52.156;5.382;2022-11-02T05:06:20;101212.53;;;11.89;100.00
26043;BME280;13818;52.156;5.382;2022-11-02T05:08:48;101208.09;;;11.88;100.00
26043;BME280;13818;52.156;5.382;2022-11-02T05:11:15;101224.06;;;11.90;100.00
26043;BME280;13818;52.156;5.382;2022-11-02T05:13:41;101232.97;;;11.91;100.00
26043;BME280;13818;52.156;5.382;2022-11-02T05:16:13;101232.06;;;11.90;100.00
26043;BME280;13818;52.156;5.382;2022-11-02T05:18:40;101228.47;;;11.91;100.00
26043;BME280;13818;52.156;5.382;2022-11-02T05:21:08;101234.91;;;11.87;100.00
26043;BME280;13818;52.156;5.382;2022-11-02T05:23:35;101234.25;;;11.82;100.00
26043;BME280;13818;52.156;5.382;2022-11-02T05:26:04;101234.25;;;11.82;100.00
26043;BME280;13818;52.156;5.382;2022-11-02T05:28:31;101248.16;;;11.88;100.00
26043;BME280;13818;52.156;5.382;2022-11-02T05:30:59;101251.78;;;11.87;100.00
26043;BME280;13818;52.156;5.382;2022-11-02T05:33:26;101242.84;;;11.88;100.00
26043;BME280;13818;52.156;5.382;2022-11-02T05:35:53;101240.31;;;11.85;100.00
26043;BME280;13818;52.156;5.382;2022-11-02T05:38:20;101232.41;;;11.82;100.00
26043;BME280;13818;52.156;5.382;2022-11-02T05:40:50;101248.16;;;11.88;100.00
26043;BME280;13818;52.156;5.382;2022-11-02T05:43:18;101252.06;;;11.81;100.00
26043;BME280;13818;52.156;5.382;2022-11-02T05:45:50;101252.28;;;11.77;100.00
26043;BME280;13818;52.156;5.382;2022-11-02T05:48:18;101255.72;;;11.79;100.00
26043;BME280;13818;52.156;5.382;2022-11-02T05:50:45;101261.03;;;11.80;100.00
26043;BME280;13818;52.156;5.382;2022-11-02T05:53:11;101261.03;;;11.80;100.00
26043;BME280;13818;52.156;5.382;2022-11-02T05:55:37;101261.88;;;11.81;100.00
26043;BME280;13818;52.156;5.382;2022-11-02T05:58:04;101264.53;;;11.81;100.00
26043;BME280;13818;52.156;5.382;2022-11-02T06:00:32;101275.09;;;11.84;100.00
26043;BME280;13818;52.156;5.382;2022-11-02T06:02:58;101279.50;;;11.85;100.00
26043;BME280;13818;52.156;5.382;2022-11-02T06:05:25;101285.84;;;11.82;100.00
26043;BME280;13818;52.156;5.382;2022-11-02T06:07:51;101293.06;;;11.80;100.00
26043;BME280;13818;52.156;5.382;2022-11-02T06:10:18;101299.25;;;11.81;100.00
26043;BME280;13818;52.156;5.382;2022-11-02T06:12:44;101301.34;;;11.74;100.00
26043;BME280;13818;52.156;5.382;2022-11-02T06:15:11;101318.03;;;11.79;100.00
26043;BME280;13818;52.156;5.382;2022-11-02T06:17:39;101312.53;;;11.82;100.00
26043;BME280;13818;52.156;5.382;2022-11-02T06:20:07;101324.03;;;11.84;100.00
26043;BME280;13818;52.156;5.382;2022-11-02T06:22:38;101325.13;;;11.80;100.00
26043;BME280;13818;52.156;5.382;2022-11-02T06:25:05;101326.13;;;11.78;100.00
26043;BME280;13818;52.156;5.382;2022-11-02T06:27:32;101332.06;;;11.84;100.00
26043;BME280;13818;52.156;5.382;2022-11-02T06:29:59;101334.00;;;11.81;100.00
26043;BME280;13818;52.156;5.382;2022-11-02T06:32:25;101342.34;;;11.73;100.00
26043;BME280;13818;52.156;5.382;2022-11-02T06:34:54;101354.03;;;11.70;100.00
26043;BME280;13818;52.156;5.382;2022-11-02T06:37:21;101354.94;;;11.69;100.00
26043;BME280;13818;52.156;5.382;2022-11-02T06:39:47;101360.88;;;11.76;100.00
26043;BME280;13818;52.156;5.382;2022-11-02T06:42:14;101362.88;;;11.71;100.00
26043;BME280;13818;52.156;5.382;2022-11-02T06:44:40;101366.22;;;11.76;100.00
26043;BME280;13818;52.156;5.382;2022-11-02T06:47:07;101375.88;;;11.80;100.00
26043;BME280;13818;52.156;5.382;2022-11-02T06:49:34;101375.91;;;11.79;100.00
26043;BME280;13818;52.156;5.382;2022-11-02T06:52:01;101389.00;;;11.85;100.00
26043;BME280;13818;52.156;5.382;2022-11-02T06:54:28;101388.06;;;11.86;100.00
26043;BME280;13818;52.156;5.382;2022-11-02T06:56:54;101407.03;;;11.80;100.00
26043;BME280;13818;52.156;5.382;2022-11-02T06:59:21;101410.38;;;11.85;100.00
26043;BME280;13818;52.156;5.382;2022-11-02T07:01:47;101424.34;;;11.92;100.00
26043;BME280;13818;52.156;5.382;2022-11-02T07:04:18;101423.31;;;11.96;100.00
26043;BME280;13818;52.156;5.382;2022-11-02T07:06:44;101428.50;;;11.99;100.00
26043;BME280;13818;52.156;5.382;2022-11-02T07:09:12;101426.72;;;11.99;100.00
26043;BME280;13818;52.156;5.382;2022-11-02T07:11:38;101441.56;;;12.07;100.00
26043;BME280;13818;52.156;5.382;2022-11-02T07:14:05;101450.19;;;12.13;100.00
26043;BME280;13818;52.156;5.382;2022-11-02T07:16:31;101454.13;;;12.04;100.00
26043;BME280;13818;52.156;5.382;2022-11-02T07:18:58;101466.41;;;12.09;100.00
26043;BME280;13818;52.156;5.382;2022-11-02T07:21:24;101470.22;;;12.24;100.00
26043;BME280;13818;52.156;5.382;2022-11-02T07:23:51;101470.38;;;12.20;100.00
26043;BME280;13818;52.156;5.382;2022-11-02T07:26:19;101473.50;;;12.30;100.00
26043;BME280;13818;52.156;5.382;2022-11-02T07:28:45;101481.06;;;12.41;100.00
26043;BME280;13818;52.156;5.382;2022-11-02T07:31:12;101479.38;;;12.59;100.00
26043;BME280;13818;52.156;5.382;2022-11-02T07:33:38;101498.94;;;12.80;100.00
26043;BME280;13818;52.156;5.382;2022-11-02T07:36:05;101500.69;;;12.81;100.00
26043;BME280;13818;52.156;5.382;2022-11-02T07:38:32;101501.63;;;12.80;100.00
26043;BME280;13818;52.156;5.382;2022-11-02T07:40:58;101497.63;;;12.70;100.00
26043;BME280;13818;52.156;5.382;2022-11-02T07:43:26;101504.56;;;12.74;100.00
26043;BME280;13818;52.156;5.382;2022-11-02T07:45:53;101509.72;;;12.79;100.00
26043;BME280;13818;52.156;5.382;2022-11-02T07:48:20;101512.19;;;12.63;100.00
26043;BME280;13818;52.156;5.382;2022-11-02T07:50:46;101513.19;;;12.60;100.00
26043;BME280;13818;52.156;5.382;2022-11-02T07:53:13;101521.78;;;12.68;100.00
26043;BME280;13818;52.156;5.382;2022-11-02T07:55:39;101517.16;;;12.72;100.00
26043;BME280;13818;52.156;5.382;2022-11-02T07:58:08;101533.28;;;12.90;100.00
26043;BME280;13818;52.156;5.382;2022-11-02T08:00:39;101524.13;;;12.95;100.00
26043;BME280;13818;52.156;5.382;2022-11-02T08:03:08;101538.59;;;12.91;100.00
26043;BME280;13818;52.156;5.382;2022-11-02T08:05:36;101541.66;;;13.02;100.00
26043;BME280;13818;52.156;5.382;2022-11-02T08:08:08;101551.84;;;13.13;100.00
26043;BME280;13818;52.156;5.382;2022-11-02T08:10:35;101553.88;;;13.08;100.00
26043;BME280;13818;52.156;5.382;2022-11-02T08:13:02;101559.53;;;13.42;100.00
26043;BME280;13818;52.156;5.382;2022-11-02T08:15:29;101562.09;;;13.81;100.00
26043;BME280;13818;52.156;5.382;2022-11-02T08:18:01;101555.72;;;13.84;100.00
26043;BME280;13818;52.156;5.382;2022-11-02T08:20:28;101549.66;;;13.61;100.00
26043;BME280;13818;52.156;5.382;2022-11-02T08:22:54;101554.00;;;13.64;100.00
26043;BME280;13818;52.156;5.382;2022-11-02T08:25:21;101567.91;;;13.72;100.00
26043;BME280;13818;52.156;5.382;2022-11-02T08:27:48;101566.09;;;13.73;100.00
26043;BME280;13818;52.156;5.382;2022-11-02T08:30:14;101572.47;;;13.70;100.00
26043;BME280;13818;52.156;5.382;2022-11-02T08:32:41;101576.97;;;13.70;100.00
26043;BME280;13818;52.156;5.382;2022-11-02T08:35:10;101591.28;;;13.88;100.00
26043;BME280;13818;52.156;5.382;2022-11-02T08:37:36;101590.78;;;13.98;100.00
26043;BME280;13818;52.156;5.382;2022-11-02T08:40:03;101582.75;;;13.98;100.00
26043;BME280;13818;52.156;5.382;2022-11-02T08:42:30;101587.38;;;13.95;100.00
26043;BME280;13818;52.156;5.382;2022-11-02T08:44:56;101589.34;;;13.91;100.00
26043;BME280;13818;52.156;5.382;2022-11-02T08:47:23;101587.47;;;13.93;100.00
26043;BME280;13818;52.156;5.382;2022-11-02T08:49:49;101592.63;;;14.15;100.00
26043;BME280;13818;52.156;5.382;2022-11-02T08:52:18;101596.53;;;14.27;100.00
26043;BME280;13818;52.156;5.382;2022-11-02T08:54:44;101591.00;;;14.30;100.00
26043;BME280;13818;52.156;5.382;2022-11-02T08:57:11;101602.84;;;14.26;100.00
26043;BME280;13818;52.156;5.382;2022-11-02T08:59:37;101604.28;;;14.34;100.00
26043;BME280;13818;52.156;5.382;2022-11-02T09:02:03;101603.09;;;14.57;100.00
26043;BME280;13818;52.156;5.382;2022-11-02T09:04:30;101605.22;;;14.50;100.00
26043;BME280;13818;52.156;5.382;2022-11-02T09:06:56;101606.72;;;14.56;100.00
26043;BME280;13818;52.156;5.382;2022-11-02T09:09:24;101608.84;;;14.49;100.00
26043;BME280;13818;52.156;5.382;2022-11-02T09:11:50;101610.03;;;14.61;100.00
26043;BME280;13818;52.156;5.382;2022-11-02T09:14:17;101607.34;;;14.43;100.00
26043;BME280;13818;52.156;5.382;2022-11-02T09:16:43;101616.03;;;14.31;100.00
26043;BME280;13818;52.156;5.382;2022-11-02T09:19:10;101620.88;;;14.23;100.00
26043;BME280;13818;52.156;5.382;2022-11-02T09:21:38;101620.66;;;14.27;100.00
26043;BME280;13818;52.156;5.382;2022-11-02T09:24:04;101626.69;;;14.13;100.00
26043;BME280;13818;52.156;5.382;2022-11-02T09:26:32;101622.13;;;14.15;100.00
26043;BME280;13818;52.156;5.382;2022-11-02T09:28:59;101630.31;;;14.12;100.00
26043;BME280;13818;52.156;5.382;2022-11-02T09:31:25;101633.72;;;14.16;100.00
26043;BME280;13818;52.156;5.382;2022-11-02T09:33:53;101643.56;;;14.15;100.00
26043;BME280;13818;52.156;5.382;2022-11-02T09:36:19;101642.19;;;14.07;100.00
26043;BME280;13818;52.156;5.382;2022-11-02T09:38:46;101651.34;;;14.03;100.00
26043;BME280;13818;52.156;5.382;2022-11-02T09:41:18;101656.25;;;14.12;100.00
26043;BME280;13818;52.156;5.382;2022-11-02T09:43:55;101661.03;;;14.05;100.00
26043;BME280;13818;52.156;5.382;2022-11-02T09:46:29;101666.75;;;14.16;100.00
26043;BME280;13818;52.156;5.382;2022-11-02T09:48:59;101670.88;;;14.24;100.00
26043;BME280;13818;52.156;5.382;2022-11-02T09:51:30;101670.09;;;14.03;100.00
26043;BME280;13818;52.156;5.382;2022-11-02T09:54:06;101668.50;;;14.18;100.00
26043;BME280;13818;52.156;5.382;2022-11-02T09:56:34;101662.34;;;14.15;100.00
26043;BME280;13818;52.156;5.382;2022-11-02T09:59:03;101677.75;;;14.29;100.00
26043;BME280;13818;52.156;5.382;2022-11-02T10:01:38;101669.34;;;14.18;100.00
26043;BME280;13818;52.156;5.382;2022-11-02T10:04:29;101671.38;;;14.32;100.00
26043;BME280;13818;52.156;5.382;2022-11-02T10:07:02;101675.41;;;14.41;100.00
26043;BME280;13818;52.156;5.382;2022-11-02T10:09:36;101672.16;;;14.34;100.00
26043;BME280;13818;52.156;5.382;2022-11-02T10:12:11;101677.16;;;14.42;100.00
26043;BME280;13818;52.156;5.382;2022-11-02T10:14:48;101676.22;;;14.43;100.00
26043;BME280;13818;52.156;5.382;2022-11-02T10:17:20;101680.84;;;14.39;100.00
26043;BME280;13818;52.156;5.382;2022-11-02T10:19:52;101689.31;;;14.49;100.00
26043;BME280;13818;52.156;5.382;2022-11-02T10:22:23;101696.28;;;14.53;100.00
26043;BME280;13818;52.156;5.382;2022-11-02T10:24:53;101699.03;;;14.52;100.00
26043;BME280;13818;52.156;5.382;2022-11-02T10:27:24;101693.13;;;14.45;100.00
26043;BME280;13818;52.156;5.382;2022-11-02T10:29:55;101696.69;;;14.63;100.00
26043;BME280;13818;52.156;5.382;2022-11-02T10:32:23;101698.16;;;14.70;100.00
26043;BME280;13818;52.156;5.382;2022-11-02T10:34:50;101701.13;;;14.64;100.00
26043;BME280;13818;52.156;5.382;2022-11-02T10:37:29;101700.69;;;14.73;100.00
26043;BME280;13818;52.156;5.382;2022-11-02T10:40:06;101704.09;;;14.77;100.00
26043;BME280;13818;52.156;5.382;2022-11-02T10:42:55;101706.63;;;14.97;100.00
26043;BME280;13818;52.156;5.382;2022-11-02T10:48:33;101712.56;;;15.22;100.00
26043;BME280;13818;52.156;5.382;2022-11-02T10:51:07;101704.75;;;15.17;100.00
26043;BME280;13818;52.156;5.382;2022-11-02T10:53:35;101711.28;;;15.11;100.00
26043;BME280;13818;52.156;5.382;2022-11-02T10:56:10;101724.16;;;15.22;100.00
26043;BME280;13818;52.156;5.382;2022-11-02T10:58:42;101729.22;;;15.28;100.00
26043;BME280;13818;52.156;5.382;2022-11-02T11:01:11;101725.28;;;15.36;100.00
26043;BME280;13818;52.156;5.382;2022-11-02T11:03:54;101720.94;;;15.33;100.00
26043;BME280;13818;52.156;5.382;2022-11-02T11:06:22;101715.22;;;15.39;100.00
26043;BME280;13818;52.156;5.382;2022-11-02T11:08:49;101710.78;;;15.56;100.00
26043;BME280;13818;52.156;5.382;2022-11-02T11:11:20;101729.34;;;15.43;100.00
26043;BME280;13818;52.156;5.382;2022-11-02T11:13:56;101736.94;;;15.52;100.00
26043;BME280;13818;52.156;5.382;2022-11-02T11:16:35;101738.34;;;15.59;100.00
26043;BME280;13818;52.156;5.382;2022-11-02T11:19:06;101738.34;;;15.59;100.00
26043;BME280;13818;52.156;5.382;2022-11-02T11:21:43;101732.84;;;15.45;100.00
26043;BME280;13818;52.156;5.382;2022-11-02T11:24:19;101736.38;;;15.45;100.00
26043;BME280;13818;52.156;5.382;2022-11-02T11:26:59;101730.97;;;15.29;100.00
26043;BME280;13818;52.156;5.382;2022-11-02T11:29:29;101736.47;;;15.26;100.00
26043;BME280;13818;52.156;5.382;2022-11-02T11:31:55;101737.09;;;15.14;100.00
26043;BME280;13818;52.156;5.382;2022-11-02T11:34:25;101730.06;;;15.11;100.00
26043;BME280;13818;52.156;5.382;2022-11-02T11:37:03;101731.66;;;14.98;100.00
26043;BME280;13818;52.156;5.382;2022-11-02T11:39:30;101734.38;;;15.16;100.00
26043;BME280;13818;52.156;5.382;2022-11-02T11:41:58;101728.50;;;15.25;100.00
26043;BME280;13818;52.156;5.382;2022-11-02T11:44:25;101727.47;;;15.10;100.00
26043;BME280;13818;52.156;5.382;2022-11-02T11:46:54;101729.38;;;15.08;100.00
26043;BME280;13818;52.156;5.382;2022-11-02T11:49:24;101723.34;;;15.03;100.00
26043;BME280;13818;52.156;5.382;2022-11-02T11:51:53;101717.13;;;15.20;100.00
26043;BME280;13818;52.156;5.382;2022-11-02T11:54:23;101716.66;;;15.11;100.00
26043;BME280;13818;52.156;5.382;2022-11-02T11:56:52;101712.72;;;15.19;100.00
26043;BME280;13818;52.156;5.382;2022-11-02T11:59:22;101709.06;;;15.20;100.00
26043;BME280;13818;52.156;5.382;2022-11-02T12:01:49;101722.28;;;15.24;100.00
26043;BME280;13818;52.156;5.382;2022-11-02T12:04:30;101722.59;;;15.18;100.00
26043;BME280;13818;52.156;5.382;2022-11-02T12:07:09;101721.16;;;15.11;100.00
26043;BME280;13818;52.156;5.382;2022-11-02T12:09:47;101719.72;;;15.04;100.00
26043;BME280;13818;52.156;5.382;2022-11-02T12:12:23;101726.44;;;15.12;100.00
26043;BME280;13818;52.156;5.382;2022-11-02T12:15:00;101725.09;;;15.04;100.00
26043;BME280;13818;52.156;5.382;2022-11-02T12:17:42;101725.00;;;15.05;100.00
26043;BME280;13818;52.156;5.382;2022-11-02T12:23:16;101720.63;;;15.04;100.00
26043;BME280;13818;52.156;5.382;2022-11-02T12:25:50;101717.03;;;15.21;100.00
26043;BME280;13818;52.156;5.382;2022-11-02T12:28:26;101714.13;;;15.26;100.00
26043;BME280;13818;52.156;5.382;2022-11-02T12:30:59;101715.63;;;15.32;100.00
26043;BME280;13818;52.156;5.382;2022-11-02T12:33:34;101709.38;;;15.31;100.00
26043;BME280;13818;52.156;5.382;2022-11-02T12:36:11;101707.25;;;15.20;100.00
26043;BME280;13818;52.156;5.382;2022-11-02T12:39:00;101701.41;;;15.29;100.00
26043;BME280;13818;52.156;5.382;2022-11-02T12:41:50;101705.69;;;15.16;100.00
26043;BME280;13818;52.156;5.382;2022-11-02T12:44:34;101698.34;;;15.02;100.00
26043;BME280;13818;52.156;5.382;2022-11-02T12:47:08;101691.22;;;15.01;100.00
26043;BME280;13818;52.156;5.382;2022-11-02T12:49:44;101697.78;;;15.13;100.00
26043;BME280;13818;52.156;5.382;2022-11-02T12:52:25;101688.63;;;15.00;100.00
26043;BME280;13818;52.156;5.382;2022-11-02T12:54:56;101698.03;;;15.08;100.00
26043;BME280;13818;52.156;5.382;2022-11-02T12:57:26;101694.13;;;15.14;100.00
26043;BME280;13818;52.156;5.382;2022-11-02T13:00:03;101700.09;;;15.21;100.00
26043;BME280;13818;52.156;5.382;2022-11-02T13:02:41;101703.00;;;15.16;100.00
26043;BME280;13818;52.156;5.382;2022-11-02T13:05:13;101695.88;;;15.15;100.00
26043;BME280;13818;52.156;5.382;2022-11-02T13:07:46;101696.59;;;15.19;100.00